< < Back
Terminal Aerodrome Forecast


Current Version              Previous Versions:   1  2  3  4  5  6  7  8  9  

Terminal Aerodrome Forecast

939
FTUS44 KBMX 220725 AAA
TAFMGM
TAF AMD
KMGM 220725Z 2207/2306 36005KT P6SM BKN120
     FM221500 01011KT P6SM SCT100=

Latest METAR

209
SAUS80 KWBC 221000
MTRMGM
METAR KMGM 220953Z AUTO 34005KT 10SM CLR 13/09 A3015 RMK AO2 SLP208
T01330094


USA.gov is the U.S. government's official web portal to all federal, state and local government web resources and services.